createdAt,value
2018-05-08T00:00:36.604Z,16.70
2018-05-08T00:03:05.283Z,16.60
2018-05-08T00:05:34.296Z,16.40
2018-05-08T00:08:04.040Z,16.40
2018-05-08T00:10:32.725Z,16.40
2018-05-08T00:13:00.923Z,16.40
2018-05-08T00:15:29.892Z,16.50
2018-05-08T00:17:58.795Z,16.50
2018-05-08T00:20:26.992Z,16.40
2018-05-08T00:22:59.145Z,16.40
2018-05-08T00:25:28.861Z,16.50
2018-05-08T00:27:58.249Z,16.50
2018-05-08T00:30:26.456Z,16.50
2018-05-08T00:32:54.651Z,16.60
2018-05-08T00:35:22.871Z,16.60
2018-05-08T00:37:51.711Z,16.70
2018-05-08T00:40:19.903Z,16.80
2018-05-08T00:42:48.103Z,16.80
2018-05-08T00:45:16.621Z,16.80
2018-05-08T00:47:46.113Z,16.80
2018-05-08T00:50:14.303Z,16.80
2018-05-08T00:52:42.983Z,16.80
2018-05-08T00:55:11.954Z,16.80
2018-05-08T00:57:40.167Z,16.70
2018-05-08T01:00:09.829Z,16.70
2018-05-08T01:02:38.024Z,16.70
2018-05-08T01:05:06.604Z,16.70
2018-05-08T01:07:35.397Z,16.70
2018-05-08T01:10:12.151Z,16.60
2018-05-08T01:12:41.115Z,16.50
2018-05-08T01:15:09.324Z,16.50
2018-05-08T01:17:37.844Z,16.60
2018-05-08T01:20:06.820Z,16.50
2018-05-08T01:22:35.028Z,16.50
2018-05-08T01:25:03.662Z,16.50
2018-05-08T01:27:32.357Z,16.40
2018-05-08T01:30:00.852Z,16.30
2018-05-08T01:32:30.777Z,16.20
2018-05-08T01:34:59.831Z,16.20
2018-05-08T01:37:28.028Z,16.20
2018-05-08T01:40:02.577Z,16.20
2018-05-08T01:42:31.608Z,16.20
2018-05-08T01:44:59.863Z,16.20
2018-05-08T01:47:28.062Z,16.20
2018-05-08T01:49:57.120Z,16.20
2018-05-08T01:52:26.089Z,16.10
2018-05-08T01:54:54.601Z,16.10
2018-05-08T01:57:22.812Z,16.00
2018-05-08T01:59:56.848Z,15.90
2018-05-08T02:02:25.044Z,15.80
2018-05-08T02:05:01.532Z,15.80
2018-05-08T02:07:30.508Z,15.70
2018-05-08T02:09:59.094Z,15.70
2018-05-08T02:12:28.400Z,15.70
2018-05-08T02:14:57.725Z,15.80
2018-05-08T02:17:25.923Z,15.80
2018-05-08T02:19:54.124Z,15.80
2018-05-08T02:22:22.335Z,15.70
2018-05-08T02:24:51.299Z,15.60
2018-05-08T02:27:19.676Z,15.60
2018-05-08T02:29:48.360Z,15.60
2018-05-08T02:32:16.823Z,15.60
2018-05-08T02:34:45.923Z,15.60
2018-05-08T02:37:14.138Z,15.60
2018-05-08T02:39:43.120Z,15.40
2018-05-08T02:42:12.828Z,15.40
2018-05-08T02:44:41.626Z,15.40
2018-05-08T02:47:09.825Z,15.40
2018-05-08T02:49:38.650Z,15.40
2018-05-08T02:52:06.844Z,15.30
2018-05-08T02:54:35.256Z,15.40
2018-05-08T02:57:04.228Z,15.30
2018-05-08T02:59:32.476Z,15.30
2018-05-08T03:02:00.702Z,15.20
2018-05-08T03:04:28.980Z,15.20
2018-05-08T03:06:57.173Z,15.20
2018-05-08T03:09:25.469Z,15.10
2018-05-08T03:11:53.773Z,15.10
2018-05-08T03:14:22.312Z,14.90
2018-05-08T03:16:51.292Z,14.80
2018-05-08T03:19:20.319Z,14.80
2018-05-08T03:21:48.520Z,14.80
2018-05-08T03:24:16.748Z,14.70
2018-05-08T03:26:46.449Z,14.70
2018-05-08T03:29:15.412Z,14.80
2018-05-08T03:31:43.613Z,14.80
2018-05-08T03:34:13.340Z,14.70
2018-05-08T03:36:42.498Z,14.50
2018-05-08T03:39:11.016Z,14.40
2018-05-08T03:41:39.333Z,14.50
2018-05-08T03:44:08.047Z,14.30
2018-05-08T03:46:36.968Z,14.30
2018-05-08T03:49:06.674Z,14.20
2018-05-08T03:51:35.248Z,14.20
2018-05-08T03:54:03.440Z,14.20
2018-05-08T03:56:32.116Z,14.10
2018-05-08T03:59:00.525Z,14.10
2018-05-08T04:01:41.016Z,14.00
2018-05-08T04:04:24.905Z,13.90
2018-05-08T04:07:04.817Z,14.00
2018-05-08T04:09:33.226Z,13.90
2018-05-08T04:12:01.479Z,13.90
2018-05-08T04:14:30.572Z,13.90
2018-05-08T04:16:59.773Z,14.00
2018-05-08T04:19:27.972Z,14.00
2018-05-08T04:21:56.173Z,14.20
2018-05-08T04:24:24.955Z,14.20
2018-05-08T04:26:53.984Z,14.30
2018-05-08T04:29:22.180Z,14.30
2018-05-08T04:31:50.368Z,14.40
2018-05-08T04:34:18.604Z,14.40
2018-05-08T04:36:46.807Z,14.30
2018-05-08T04:39:15.009Z,14.30
2018-05-08T04:41:44.129Z,14.30
2018-05-08T04:44:23.094Z,14.40
2018-05-08T04:46:51.323Z,14.40
2018-05-08T04:49:19.804Z,14.50
2018-05-08T04:51:49.053Z,14.50
2018-05-08T04:54:17.249Z,14.50
2018-05-08T04:56:45.439Z,14.40
2018-05-08T04:59:13.912Z,14.50
2018-05-08T05:01:42.115Z,14.50
2018-05-08T05:04:20.161Z,14.60
2018-05-08T05:06:48.692Z,14.60
2018-05-08T05:09:17.167Z,14.70
2018-05-08T05:11:47.092Z,14.70
2018-05-08T05:14:15.860Z,14.90
2018-05-08T05:16:45.280Z,15.00
2018-05-08T05:19:13.461Z,14.90
2018-05-08T05:21:41.673Z,15.20
2018-05-08T05:24:09.892Z,15.30
2018-05-08T05:26:38.483Z,15.50
2018-05-08T05:29:06.690Z,15.60
2018-05-08T05:31:34.917Z,15.70
2018-05-08T05:34:03.148Z,15.70
2018-05-08T05:36:32.196Z,15.90
2018-05-08T05:39:07.185Z,15.90
2018-05-08T05:41:35.620Z,15.90
2018-05-08T05:44:03.980Z,15.90
2018-05-08T05:46:33.677Z,16.10
2018-05-08T05:49:01.952Z,16.10
2018-05-08T05:51:30.169Z,16.20
2018-05-08T05:53:58.379Z,16.40
2018-05-08T05:56:26.961Z,16.40
2018-05-08T05:58:55.304Z,16.50
2018-05-08T06:01:23.511Z,16.50
2018-05-08T06:03:52.473Z,16.70
2018-05-08T06:06:21.305Z,16.70
2018-05-08T06:08:49.496Z,16.80
2018-05-08T06:11:20.308Z,17.00
2018-05-08T06:13:49.077Z,17.10
2018-05-08T06:16:17.592Z,17.20
2018-05-08T06:18:45.797Z,17.40
2018-05-08T06:21:13.997Z,17.60
2018-05-08T06:23:42.591Z,17.80
2018-05-08T06:26:10.864Z,17.90
2018-05-08T06:28:39.347Z,18.10
2018-05-08T06:31:08.180Z,18.40
2018-05-08T06:33:36.411Z,18.60
2018-05-08T06:36:05.275Z,18.80
2018-05-08T06:38:33.472Z,19.00
2018-05-08T06:41:02.614Z,19.20
2018-05-08T06:43:30.824Z,19.10
2018-05-08T06:45:59.428Z,19.30
2018-05-08T06:48:28.125Z,19.50
2018-05-08T06:50:56.552Z,19.40
2018-05-08T06:53:25.111Z,19.70
2018-05-08T06:55:54.080Z,20.10
2018-05-08T06:58:22.890Z,20.10
2018-05-08T07:00:51.853Z,20.20
2018-05-08T07:03:20.655Z,20.10
2018-05-08T07:05:49.060Z,20.40
2018-05-08T07:08:18.020Z,20.40
2018-05-08T07:10:46.909Z,20.40
2018-05-08T07:13:15.582Z,20.60
2018-05-08T07:15:45.092Z,20.60
2018-05-08T07:18:13.224Z,20.60
2018-05-08T08:42:39.792Z,21.10
2018-05-08T08:45:08.483Z,24.50
2018-05-08T08:47:42.801Z,24.80
2018-05-08T08:50:11.999Z,24.50
2018-05-08T08:52:40.364Z,24.40
2018-05-08T08:55:08.549Z,24.20
2018-05-08T08:57:37.156Z,24.40
2018-05-08T09:00:06.561Z,24.70
2018-05-08T09:02:34.766Z,24.70
2018-05-08T09:05:04.037Z,24.80
2018-05-08T09:07:33.009Z,24.80
2018-05-08T09:10:01.598Z,24.70
2018-05-08T09:12:29.976Z,24.70
2018-05-08T09:14:58.413Z,24.40
2018-05-08T09:17:26.630Z,24.40
2018-05-08T09:19:55.371Z,24.40
2018-05-08T09:22:23.596Z,24.20
2018-05-08T09:24:51.796Z,24.30
2018-05-08T09:27:21.186Z,24.30
2018-05-08T09:29:49.401Z,24.30
2018-05-08T09:32:17.603Z,24.30
2018-05-08T09:34:45.816Z,24.40
2018-05-08T09:37:14.008Z,24.40
2018-05-08T09:39:43.612Z,24.40
2018-05-08T09:42:13.194Z,24.40
2018-05-08T09:44:42.522Z,24.40
2018-05-08T09:47:11.264Z,24.20
2018-05-08T09:49:39.514Z,24.10
2018-05-08T09:52:07.720Z,24.00
2018-05-08T09:54:35.924Z,23.80
2018-05-08T09:57:04.604Z,23.90
2018-05-08T09:59:33.531Z,23.90
2018-05-08T10:02:02.504Z,23.70
2018-05-08T10:04:35.075Z,23.70
2018-05-08T10:07:03.276Z,23.70
2018-05-08T10:09:31.493Z,23.70
2018-05-08T10:11:59.816Z,23.60
2018-05-08T10:14:28.392Z,23.70
2018-05-08T10:16:56.660Z,23.50
2018-05-08T10:19:24.856Z,23.40
2018-05-08T10:21:54.240Z,23.60
2018-05-08T10:24:22.500Z,23.60
2018-05-08T10:26:51.078Z,23.60
2018-05-08T10:29:19.813Z,23.70
2018-05-08T10:31:48.772Z,23.70
2018-05-08T10:34:16.968Z,23.70
2018-05-08T10:36:45.187Z,23.80
2018-05-08T10:39:13.388Z,23.60
2018-05-08T10:41:41.631Z,23.60
2018-05-08T10:44:10.396Z,23.60
2018-05-08T10:46:38.604Z,23.50
2018-05-08T10:49:07.532Z,23.40
2018-05-08T10:51:35.748Z,23.50
2018-05-08T10:54:04.721Z,23.50
2018-05-08T10:56:33.400Z,23.50
2018-05-08T10:59:02.154Z,23.50
2018-05-08T11:01:30.901Z,23.60
2018-05-08T11:03:59.095Z,23.60
2018-05-08T11:06:27.767Z,23.60
2018-05-08T11:08:56.760Z,23.40
2018-05-08T11:11:26.276Z,23.30
2018-05-08T11:13:55.117Z,23.30
2018-05-08T11:16:25.176Z,23.30
2018-05-08T11:18:54.160Z,23.20
2018-05-08T11:21:23.124Z,23.20
2018-05-08T11:23:52.237Z,23.20
2018-05-08T11:26:21.110Z,23.30
2018-05-08T11:28:49.276Z,23.50
2018-05-08T11:31:17.536Z,23.50
2018-05-08T11:33:45.756Z,23.50
2018-05-08T11:36:13.969Z,23.50
2018-05-08T11:38:42.164Z,23.40
2018-05-08T11:41:10.993Z,23.40
2018-05-08T11:43:39.188Z,23.40
2018-05-08T11:46:08.647Z,23.30
2018-05-08T11:48:37.364Z,23.30
2018-05-08T11:51:05.565Z,23.30
2018-05-08T11:53:34.520Z,23.50
2018-05-08T11:56:02.740Z,23.50
2018-05-08T11:58:32.128Z,23.30
2018-05-08T12:01:01.167Z,23.30
2018-05-08T13:25:27.704Z,23.40
2018-05-08T13:27:56.804Z,24.40
2018-05-08T13:30:25.010Z,24.40
2018-05-08T13:32:53.208Z,24.40
2018-05-08T13:35:21.432Z,24.30
2018-05-08T13:37:50.144Z,24.10
2018-05-08T13:40:19.108Z,24.00
2018-05-08T13:42:47.316Z,24.00
2018-05-08T13:45:17.229Z,23.90
2018-05-08T13:47:46.932Z,23.70
2018-05-08T13:50:15.132Z,23.70
2018-05-08T13:52:43.332Z,23.60
2018-05-08T13:55:11.784Z,23.70
2018-05-08T13:57:40.761Z,23.90
2018-05-08T14:00:09.324Z,23.90
2018-05-08T14:02:37.531Z,23.90
2018-05-08T14:05:06.490Z,24.20
2018-05-08T14:07:34.740Z,24.30
2018-05-08T14:10:02.960Z,24.30
2018-05-08T14:12:31.496Z,24.30
2018-05-08T14:15:00.540Z,24.10
2018-05-08T14:17:28.757Z,24.20
2018-05-08T14:19:56.957Z,24.20
2018-05-08T14:22:25.940Z,24.20
2018-05-08T14:24:54.213Z,24.20
2018-05-08T14:27:23.139Z,24.40
2018-05-08T14:29:51.312Z,24.50
2018-05-08T14:32:19.528Z,24.40
2018-05-08T14:34:48.397Z,24.30
2018-05-08T14:37:16.605Z,24.40
2018-05-08T14:39:44.808Z,24.50
2018-05-08T14:42:13.018Z,24.60
2018-05-08T14:44:41.604Z,24.60
2018-05-08T14:47:09.813Z,24.50
2018-05-08T14:49:38.577Z,24.50
2018-05-08T14:52:06.800Z,24.60
2018-05-08T14:54:35.020Z,24.70
2018-05-08T14:57:03.242Z,24.70
2018-05-08T14:59:31.604Z,24.80
2018-05-08T15:01:59.808Z,24.80
2018-05-08T15:04:28.030Z,24.90
2018-05-08T15:06:57.129Z,25.00
2018-05-08T15:09:25.977Z,25.00
2018-05-08T15:11:54.726Z,24.80
2018-05-08T15:14:25.159Z,25.00
2018-05-08T15:16:54.131Z,25.00
2018-05-08T15:19:22.332Z,25.10
2018-05-08T15:21:50.561Z,25.10
2018-05-08T15:24:18.760Z,25.20
2018-05-08T15:26:47.792Z,24.90
2018-05-08T15:29:16.009Z,24.90
2018-05-08T15:31:44.748Z,24.80
2018-05-08T15:34:12.957Z,24.80
2018-05-08T15:36:41.177Z,24.70
2018-05-08T15:39:10.228Z,24.70
2018-05-08T15:41:38.428Z,24.70
2018-05-08T15:44:07.212Z,24.80
2018-05-08T15:46:35.443Z,24.70
2018-05-08T15:49:04.616Z,24.70
2018-05-08T15:51:33.589Z,24.60
2018-05-08T15:54:01.809Z,24.50
2018-05-08T15:56:30.044Z,24.50
2018-05-08T15:58:59.329Z,24.50
2018-05-08T16:01:27.620Z,24.50
2018-05-08T16:03:55.935Z,24.50
2018-05-08T16:06:25.192Z,24.30
2018-05-08T16:08:53.918Z,24.30
2018-05-08T16:11:24.393Z,24.20
2018-05-08T16:13:53.608Z,24.20
2018-05-08T16:16:21.888Z,24.20
2018-05-08T16:18:50.088Z,24.20
2018-05-08T16:21:18.304Z,24.10
2018-05-08T16:23:46.681Z,24.10
2018-05-08T16:26:15.264Z,24.10
2018-05-08T16:28:43.473Z,24.20
2018-05-08T16:31:11.901Z,24.20
2018-05-08T16:33:40.107Z,24.20
2018-05-08T16:36:08.302Z,24.30
2018-05-08T16:38:36.721Z,24.20
2018-05-08T16:41:05.697Z,24.20
2018-05-08T16:43:34.676Z,24.20
2018-05-08T16:46:03.389Z,24.20
2018-05-08T16:48:33.345Z,24.00
2018-05-08T16:51:02.280Z,23.90
2018-05-08T16:53:30.487Z,23.90
2018-05-08T16:55:59.041Z,23.90
2018-05-08T16:58:35.629Z,23.90
2018-05-08T17:01:05.017Z,23.90
2018-05-08T17:03:33.221Z,23.90
2018-05-08T17:06:01.665Z,23.90
2018-05-08T17:08:30.361Z,23.90
2018-05-08T17:10:58.829Z,23.80
2018-05-08T17:13:27.116Z,23.80
2018-05-08T17:15:55.412Z,23.90
2018-05-08T17:18:24.384Z,23.80
2018-05-08T17:20:52.650Z,23.80
2018-05-08T17:23:20.829Z,23.80
2018-05-08T17:25:57.416Z,23.80
2018-05-08T17:28:25.682Z,23.70
2018-05-08T17:30:53.877Z,23.70
2018-05-08T17:33:22.937Z,23.60
2018-05-08T17:35:51.147Z,23.60
2018-05-08T17:38:20.118Z,23.40
2018-05-08T17:40:48.312Z,23.40
2018-05-08T17:43:17.323Z,23.30
2018-05-08T17:45:45.537Z,23.20
2018-05-08T17:48:14.590Z,23.20
2018-05-08T17:50:42.793Z,23.20
2018-05-08T17:53:11.001Z,23.20
2018-05-08T17:55:39.812Z,23.10
2018-05-08T17:58:08.489Z,23.10
2018-05-08T18:00:36.916Z,23.00
2018-05-08T18:03:05.232Z,23.00
2018-05-08T18:05:33.840Z,23.00
2018-05-08T18:08:02.757Z,22.90
2018-05-08T18:10:31.857Z,22.90
2018-05-08T18:13:00.944Z,22.80
2018-05-08T18:15:30.641Z,22.80
2018-05-08T18:17:58.845Z,22.80
2018-05-08T18:20:27.052Z,22.70
2018-05-08T18:22:55.427Z,22.70
2018-05-08T18:25:23.747Z,22.60
2018-05-08T18:27:52.224Z,22.60
2018-05-08T18:30:21.052Z,22.60
2018-05-08T18:32:49.350Z,22.50
2018-05-08T18:35:17.937Z,22.50
2018-05-08T18:37:46.381Z,22.40
2018-05-08T18:40:15.365Z,22.30
2018-05-08T18:42:43.643Z,22.30
2018-05-08T18:45:12.262Z,22.20
2018-05-08T18:47:44.133Z,22.20
2018-05-08T18:50:12.353Z,22.10
2018-05-08T18:52:40.541Z,22.10
2018-05-08T18:55:08.800Z,22.00
2018-05-08T18:57:36.978Z,22.00
2018-05-08T19:00:11.801Z,21.90
2018-05-08T19:02:40.017Z,21.90
2018-05-08T19:05:09.320Z,21.80
2018-05-08T19:07:37.527Z,21.70
2018-05-08T19:10:05.731Z,21.70
2018-05-08T19:12:34.505Z,21.70
2018-05-08T19:15:12.826Z,21.70
2018-05-08T19:17:41.416Z,21.60
2018-05-08T19:20:10.236Z,21.50
2018-05-08T19:22:38.813Z,21.50
2018-05-08T19:25:08.202Z,21.40
2018-05-08T19:27:37.185Z,21.40
2018-05-08T19:30:15.144Z,21.40
2018-05-08T19:32:43.348Z,21.30
2018-05-08T19:35:17.996Z,21.30
2018-05-08T19:37:54.884Z,21.20
2018-05-08T19:40:23.283Z,21.20
2018-05-08T19:42:52.448Z,21.10
2018-05-08T19:45:20.660Z,21.10
2018-05-08T19:47:50.028Z,21.00
2018-05-08T19:50:18.891Z,21.00
2018-05-08T19:52:47.080Z,21.00
2018-05-08T19:55:15.279Z,21.00
2018-05-08T19:57:44.098Z,21.00
2018-05-08T20:00:13.632Z,20.80
2018-05-08T20:02:42.468Z,20.80
2018-05-08T20:05:11.440Z,20.70
2018-05-08T20:07:39.650Z,20.60
2018-05-08T20:10:07.842Z,20.60
2018-05-08T20:12:36.841Z,20.50
2018-05-08T20:15:05.717Z,20.50
2018-05-08T20:17:35.024Z,20.40
2018-05-08T20:20:04.248Z,20.40
2018-05-08T20:22:32.465Z,20.40
2018-05-08T20:25:00.692Z,20.30
2018-05-08T20:27:29.989Z,20.20
2018-05-08T20:29:59.249Z,20.10
2018-05-08T20:32:27.449Z,20.10
2018-05-08T20:34:55.661Z,20.00
2018-05-08T20:37:24.788Z,19.90
2018-05-08T20:39:52.992Z,19.80
2018-05-08T20:42:21.973Z,19.60
2018-05-08T20:44:50.750Z,19.60
2018-05-08T20:47:18.954Z,19.70
2018-05-08T20:49:47.164Z,19.70
2018-05-08T20:52:15.385Z,19.60
2018-05-08T20:54:43.871Z,19.50
2018-05-08T20:57:12.073Z,19.40
2018-05-08T20:59:42.206Z,19.40
2018-05-08T21:02:11.144Z,19.30
2018-05-08T21:04:40.855Z,19.30
2018-05-08T21:07:09.671Z,19.20
2018-05-08T21:09:37.874Z,19.20
2018-05-08T21:12:14.352Z,19.10
2018-05-08T21:14:42.880Z,19.10
2018-05-08T21:17:11.485Z,18.90
2018-05-08T21:19:39.694Z,19.00
2018-05-08T21:22:07.899Z,19.00
2018-05-08T21:24:36.128Z,18.90
2018-05-08T21:27:05.489Z,18.90
2018-05-08T21:29:40.692Z,18.90
2018-05-08T21:32:08.889Z,18.80
2018-05-08T21:34:37.089Z,18.70
2018-05-08T21:37:05.309Z,18.60
2018-05-08T21:39:33.514Z,18.60
2018-05-08T21:42:01.725Z,18.60
2018-05-08T21:44:29.947Z,18.50
2018-05-08T21:46:58.608Z,18.50
2018-05-08T21:49:26.816Z,18.40
2018-05-08T21:51:55.382Z,18.40
2018-05-08T21:54:23.581Z,18.40
2018-05-08T21:56:51.789Z,18.30
2018-05-08T21:59:20.468Z,18.30
2018-05-08T22:01:51.512Z,18.20
2018-05-08T22:04:19.713Z,18.10
2018-05-08T22:06:49.112Z,18.00
2018-05-08T22:09:17.316Z,18.00
2018-05-08T22:11:45.973Z,18.00
2018-05-08T22:14:15.252Z,18.10
2018-05-08T22:16:43.738Z,18.10
2018-05-08T22:19:11.938Z,18.10
2018-05-08T22:21:40.137Z,18.10
2018-05-08T22:24:08.344Z,18.10
2018-05-08T22:26:37.701Z,18.00
2018-05-08T22:29:06.965Z,18.00
2018-05-08T22:31:35.880Z,18.00
2018-05-08T22:34:04.077Z,18.00
2018-05-08T22:36:32.285Z,18.00
2018-05-08T22:39:00.513Z,17.90
2018-05-08T22:41:29.484Z,17.80
2018-05-08T22:43:57.733Z,17.80
2018-05-08T22:46:25.948Z,17.80
2018-05-08T22:48:54.177Z,17.80
2018-05-08T22:51:22.915Z,17.70
2018-05-08T22:53:51.111Z,17.70
2018-05-08T22:56:19.301Z,17.70
2018-05-08T22:58:48.155Z,17.60
2018-05-08T23:01:16.820Z,17.60
2018-05-08T23:03:45.785Z,17.60
2018-05-08T23:06:14.336Z,17.50
2018-05-08T23:08:42.573Z,17.50
2018-05-08T23:11:11.172Z,17.60
2018-05-08T23:13:39.841Z,17.60
2018-05-08T23:16:08.532Z,17.60
2018-05-08T23:18:37.660Z,17.50
2018-05-08T23:21:06.624Z,17.30
2018-05-08T23:23:34.838Z,17.30
2018-05-08T23:26:09.815Z,17.30
2018-05-08T23:28:39.156Z,17.30
2018-05-08T23:31:07.360Z,17.30
2018-05-08T23:33:35.560Z,17.10
2018-05-08T23:36:03.797Z,17.00
2018-05-08T23:38:33.716Z,17.00
2018-05-08T23:41:02.685Z,17.00
2018-05-08T23:43:31.275Z,17.00
2018-05-08T23:45:59.467Z,17.10
2018-05-08T23:48:28.256Z,17.00
2018-05-08T23:50:57.230Z,16.90
2018-05-08T23:53:25.428Z,16.90
2018-05-08T23:55:53.920Z,16.90
2018-05-08T23:58:23.620Z,16.90
